sensor_id;sensor_type;location;lat;lon;timestamp;pressure;altitude;pressure_sealevel;temperature;humidity
7075;BME280;3578;51.568;6.932;2023-02-19T00:01:07;47351.16;;;-144.14;100.00
7075;BME280;3578;51.568;6.932;2023-02-19T00:03:37;47263.13;;;-144.14;100.00
7075;BME280;3578;51.568;6.932;2023-02-19T00:06:06;47257.13;;;-144.14;100.00
7075;BME280;3578;51.568;6.932;2023-02-19T00:08:36;47255.13;;;-144.14;100.00
7075;BME280;3578;51.568;6.932;2023-02-19T00:11:05;47235.13;;;-144.14;100.00
7075;BME280;3578;51.568;6.932;2023-02-19T00:13:35;47187.13;;;-144.14;100.00
7075;BME280;3578;51.568;6.932;2023-02-19T00:16:05;47235.13;;;-144.14;100.00
7075;BME280;3578;51.568;6.932;2023-02-19T00:18:32;47223.13;;;-144.14;100.00
7075;BME280;3578;51.568;6.932;2023-02-19T00:21:01;47255.13;;;-144.14;100.00
7075;BME280;3578;51.568;6.932;2023-02-19T00:23:28;47245.13;;;-144.14;100.00
7075;BME280;3578;51.568;6.932;2023-02-19T00:25:55;47151.09;;;-144.14;100.00
7075;BME280;3578;51.568;6.932;2023-02-19T00:28:22;47079.09;;;-144.14;100.00
7075;BME280;3578;51.568;6.932;2023-02-19T00:30:49;47059.09;;;-144.14;100.00
7075;BME280;3578;51.568;6.932;2023-02-19T00:33:16;47067.09;;;-144.14;100.00
7075;BME280;3578;51.568;6.932;2023-02-19T00:35:44;46985.06;;;-144.14;100.00
7075;BME280;3578;51.568;6.932;2023-02-19T00:38:12;46975.06;;;-144.14;100.00
7075;BME280;3578;51.568;6.932;2023-02-19T00:40:40;46967.06;;;-144.14;100.00
7075;BME280;3578;51.568;6.932;2023-02-19T00:43:07;46965.06;;;-144.14;100.00
7075;BME280;3578;51.568;6.932;2023-02-19T00:45:35;46951.06;;;-144.14;100.00
7075;BME280;3578;51.568;6.932;2023-02-19T00:48:03;46921.06;;;-144.14;100.00
7075;BME280;3578;51.568;6.932;2023-02-19T00:50:31;46923.06;;;-144.14;100.00
7075;BME280;3578;51.568;6.932;2023-02-19T00:52:59;46939.06;;;-144.14;100.00
7075;BME280;3578;51.568;6.932;2023-02-19T00:55:28;46911.06;;;-144.14;100.00
7075;BME280;3578;51.568;6.932;2023-02-19T00:57:56;46879.06;;;-144.14;100.00
7075;BME280;3578;51.568;6.932;2023-02-19T01:00:23;46923.06;;;-144.14;100.00
7075;BME280;3578;51.568;6.932;2023-02-19T01:02:50;46895.06;;;-144.14;100.00
7075;BME280;3578;51.568;6.932;2023-02-19T01:05:17;46975.06;;;-144.14;100.00
7075;BME280;3578;51.568;6.932;2023-02-19T01:07:45;46923.06;;;-144.14;100.00
7075;BME280;3578;51.568;6.932;2023-02-19T01:10:12;46965.06;;;-144.14;100.00
7075;BME280;3578;51.568;6.932;2023-02-19T01:12:40;46933.06;;;-144.14;100.00
7075;BME280;3578;51.568;6.932;2023-02-19T01:15:08;46883.06;;;-144.14;100.00
7075;BME280;3578;51.568;6.932;2023-02-19T01:17:35;46889.06;;;-144.14;100.00
7075;BME280;3578;51.568;6.932;2023-02-19T01:20:03;46797.03;;;-144.14;100.00
7075;BME280;3578;51.568;6.932;2023-02-19T01:22:30;46843.03;;;-144.14;100.00
7075;BME280;3578;51.568;6.932;2023-02-19T01:24:57;46859.06;;;-144.14;100.00
7075;BME280;3578;51.568;6.932;2023-02-19T01:27:24;46819.03;;;-144.14;100.00
7075;BME280;3578;51.568;6.932;2023-02-19T01:29:53;46843.03;;;-144.14;100.00
7075;BME280;3578;51.568;6.932;2023-02-19T01:32:20;46829.03;;;-144.14;100.00
7075;BME280;3578;51.568;6.932;2023-02-19T01:34:47;46839.03;;;-144.14;100.00
7075;BME280;3578;51.568;6.932;2023-02-19T01:37:14;46865.06;;;-144.14;100.00
7075;BME280;3578;51.568;6.932;2023-02-19T01:39:41;46833.03;;;-144.14;100.00
7075;BME280;3578;51.568;6.932;2023-02-19T01:42:13;46817.03;;;-144.14;100.00
7075;BME280;3578;51.568;6.932;2023-02-19T01:45:22;46891.06;;;-144.14;100.00
7075;BME280;3578;51.568;6.932;2023-02-19T01:48:01;46941.06;;;-144.14;100.00
7075;BME280;3578;51.568;6.932;2023-02-19T01:50:35;46867.06;;;-144.14;100.00
7075;BME280;3578;51.568;6.932;2023-02-19T01:53:06;46881.06;;;-144.14;100.00
7075;BME280;3578;51.568;6.932;2023-02-19T01:55:36;46791.03;;;-144.14;100.00
7075;BME280;3578;51.568;6.932;2023-02-19T01:58:03;46719.03;;;-144.14;100.00
7075;BME280;3578;51.568;6.932;2023-02-19T02:00:32;46623.03;;;-144.14;100.00
7075;BME280;3578;51.568;6.932;2023-02-19T02:03:00;46569.03;;;-144.14;100.00
7075;BME280;3578;51.568;6.932;2023-02-19T02:05:52;46503.00;;;-144.14;100.00
7075;BME280;3578;51.568;6.932;2023-02-19T02:08:21;46365.00;;;-144.14;100.00
7075;BME280;3578;51.568;6.932;2023-02-19T02:11:07;46421.00;;;-144.14;100.00
7075;BME280;3578;51.568;6.932;2023-02-19T02:13:36;46387.00;;;-144.14;100.00
7075;BME280;3578;51.568;6.932;2023-02-19T02:16:20;46379.00;;;-144.14;100.00
7075;BME280;3578;51.568;6.932;2023-02-19T02:19:00;46407.00;;;-144.14;100.00
7075;BME280;3578;51.568;6.932;2023-02-19T02:22:04;46369.00;;;-144.14;100.00
7075;BME280;3578;51.568;6.932;2023-02-19T02:27:55;46311.00;;;-144.14;100.00
7075;BME280;3578;51.568;6.932;2023-02-19T02:30:32;46327.00;;;-144.14;100.00
7075;BME280;3578;51.568;6.932;2023-02-19T02:33:20;46325.00;;;-144.14;100.00
7075;BME280;3578;51.568;6.932;2023-02-19T02:35:55;46307.00;;;-144.14;100.00
7075;BME280;3578;51.568;6.932;2023-02-19T02:38:27;46229.00;;;-144.14;100.00
7075;BME280;3578;51.568;6.932;2023-02-19T02:40:55;46231.00;;;-144.14;100.00
7075;BME280;3578;51.568;6.932;2023-02-19T02:43:23;46217.00;;;-144.14;100.00
7075;BME280;3578;51.568;6.932;2023-02-19T02:45:51;46243.00;;;-144.14;100.00
7075;BME280;3578;51.568;6.932;2023-02-19T02:48:28;46231.00;;;-144.14;100.00
7075;BME280;3578;51.568;6.932;2023-02-19T02:50:59;46217.00;;;-144.14;100.00
7075;BME280;3578;51.568;6.932;2023-02-19T02:53:31;46275.00;;;-144.14;100.00
7075;BME280;3578;51.568;6.932;2023-02-19T02:56:17;46381.00;;;-144.14;100.00
7075;BME280;3578;51.568;6.932;2023-02-19T02:58:46;46313.00;;;-144.14;100.00
7075;BME280;3578;51.568;6.932;2023-02-19T03:01:19;46317.00;;;-144.14;100.00
7075;BME280;3578;51.568;6.932;2023-02-19T03:04:08;46349.00;;;-144.14;100.00
7075;BME280;3578;51.568;6.932;2023-02-19T03:06:38;46395.00;;;-144.14;100.00
7075;BME280;3578;51.568;6.932;2023-02-19T03:09:12;46385.00;;;-144.14;100.00
7075;BME280;3578;51.568;6.932;2023-02-19T03:11:44;46393.00;;;-144.14;100.00
7075;BME280;3578;51.568;6.932;2023-02-19T03:14:36;46471.00;;;-144.14;100.00
7075;BME280;3578;51.568;6.932;2023-02-19T03:17:28;46549.00;;;-144.14;100.00
7075;BME280;3578;51.568;6.932;2023-02-19T03:20:20;46661.03;;;-144.14;100.00
7075;BME280;3578;51.568;6.932;2023-02-19T03:22:51;46795.03;;;-144.14;100.00
7075;BME280;3578;51.568;6.932;2023-02-19T03:25:22;46887.06;;;-144.14;100.00
7075;BME280;3578;51.568;6.932;2023-02-19T03:28:09;46889.06;;;-144.14;100.00
7075;BME280;3578;51.568;6.932;2023-02-19T03:30:43;46901.06;;;-144.14;100.00
7075;BME280;3578;51.568;6.932;2023-02-19T03:33:16;46989.06;;;-144.14;100.00
7075;BME280;3578;51.568;6.932;2023-02-19T03:35:48;47071.09;;;-144.14;100.00
7075;BME280;3578;51.568;6.932;2023-02-19T03:38:19;47099.09;;;-144.14;100.00
7075;BME280;3578;51.568;6.932;2023-02-19T03:40:54;47211.13;;;-144.14;100.00
7075;BME280;3578;51.568;6.932;2023-02-19T03:43:31;47235.13;;;-144.14;100.00
7075;BME280;3578;51.568;6.932;2023-02-19T03:46:07;47229.13;;;-144.14;100.00
7075;BME280;3578;51.568;6.932;2023-02-19T03:48:41;47235.13;;;-144.14;100.00
7075;BME280;3578;51.568;6.932;2023-02-19T03:51:23;47173.13;;;-144.14;100.00
7075;BME280;3578;51.568;6.932;2023-02-19T03:54:01;47159.09;;;-144.14;100.00
7075;BME280;3578;51.568;6.932;2023-02-19T03:56:35;47145.09;;;-144.14;100.00
7075;BME280;3578;51.568;6.932;2023-02-19T03:59:10;47101.09;;;-144.14;100.00
7075;BME280;3578;51.568;6.932;2023-02-19T04:01:43;47255.13;;;-144.14;100.00
7075;BME280;3578;51.568;6.932;2023-02-19T04:04:17;47287.13;;;-144.14;100.00
7075;BME280;3578;51.568;6.932;2023-02-19T04:06:53;47307.16;;;-144.14;100.00
7075;BME280;3578;51.568;6.932;2023-02-19T04:09:23;47323.16;;;-144.14;100.00
7075;BME280;3578;51.568;6.932;2023-02-19T04:11:54;47379.16;;;-144.14;100.00
7075;BME280;3578;51.568;6.932;2023-02-19T04:14:25;47381.16;;;-144.14;100.00
7075;BME280;3578;51.568;6.932;2023-02-19T04:16:57;47447.19;;;-144.14;100.00
7075;BME280;3578;51.568;6.932;2023-02-19T04:19:29;47415.19;;;-144.14;100.00
7075;BME280;3578;51.568;6.932;2023-02-19T04:21:57;47439.19;;;-144.14;100.00
7075;BME280;3578;51.568;6.932;2023-02-19T04:24:30;47453.19;;;-144.14;100.00
7075;BME280;3578;51.568;6.932;2023-02-19T04:26:59;47335.16;;;-144.14;100.00
7075;BME280;3578;51.568;6.932;2023-02-19T04:29:26;47247.13;;;-144.14;100.00
7075;BME280;3578;51.568;6.932;2023-02-19T04:31:53;47187.13;;;-144.14;100.00
7075;BME280;3578;51.568;6.932;2023-02-19T04:34:20;47193.13;;;-144.14;100.00
7075;BME280;3578;51.568;6.932;2023-02-19T04:36:49;47255.13;;;-144.14;100.00
7075;BME280;3578;51.568;6.932;2023-02-19T04:39:15;47357.16;;;-144.14;100.00
7075;BME280;3578;51.568;6.932;2023-02-19T04:41:43;47393.16;;;-144.14;100.00
7075;BME280;3578;51.568;6.932;2023-02-19T04:44:09;47431.19;;;-144.14;100.00
7075;BME280;3578;51.568;6.932;2023-02-19T04:46:36;47451.19;;;-144.14;100.00
7075;BME280;3578;51.568;6.932;2023-02-19T04:49:03;47459.19;;;-144.14;100.00
7075;BME280;3578;51.568;6.932;2023-02-19T04:51:30;47491.22;;;-144.14;100.00
7075;BME280;3578;51.568;6.932;2023-02-19T04:53:59;47499.22;;;-144.14;100.00
7075;BME280;3578;51.568;6.932;2023-02-19T04:56:26;47539.22;;;-144.14;100.00
7075;BME280;3578;51.568;6.932;2023-02-19T04:58:53;47513.22;;;-144.14;100.00
7075;BME280;3578;51.568;6.932;2023-02-19T05:01:20;47511.22;;;-144.14;100.00
7075;BME280;3578;51.568;6.932;2023-02-19T05:03:47;47597.25;;;-144.14;100.00
7075;BME280;3578;51.568;6.932;2023-02-19T05:06:14;47583.25;;;-144.14;100.00
7075;BME280;3578;51.568;6.932;2023-02-19T05:08:41;47633.25;;;-144.14;100.00
7075;BME280;3578;51.568;6.932;2023-02-19T05:11:11;47631.25;;;-144.14;100.00
7075;BME280;3578;51.568;6.932;2023-02-19T05:13:38;47643.25;;;-144.14;100.00
7075;BME280;3578;51.568;6.932;2023-02-19T05:16:09;47655.25;;;-144.14;100.00
7075;BME280;3578;51.568;6.932;2023-02-19T05:18:39;47669.28;;;-144.14;100.00
7075;BME280;3578;51.568;6.932;2023-02-19T05:21:06;47655.25;;;-144.14;100.00
7075;BME280;3578;51.568;6.932;2023-02-19T05:23:33;47633.25;;;-144.14;100.00
7075;BME280;3578;51.568;6.932;2023-02-19T05:26:04;47677.28;;;-144.14;100.00
7075;BME280;3578;51.568;6.932;2023-02-19T05:28:33;47647.25;;;-144.14;100.00
7075;BME280;3578;51.568;6.932;2023-02-19T05:31:05;47695.28;;;-144.14;100.00
7075;BME280;3578;51.568;6.932;2023-02-19T05:33:32;47647.25;;;-144.14;100.00
7075;BME280;3578;51.568;6.932;2023-02-19T05:36:05;47519.22;;;-144.14;100.00
7075;BME280;3578;51.568;6.932;2023-02-19T05:38:33;47585.25;;;-144.14;100.00
7075;BME280;3578;51.568;6.932;2023-02-19T05:41:08;47549.22;;;-144.14;100.00
7075;BME280;3578;51.568;6.932;2023-02-19T05:43:38;47553.22;;;-144.14;100.00
7075;BME280;3578;51.568;6.932;2023-02-19T05:46:06;47591.25;;;-144.14;100.00
7075;BME280;3578;51.568;6.932;2023-02-19T05:48:33;47599.25;;;-144.14;100.00
7075;BME280;3578;51.568;6.932;2023-02-19T05:51:02;47619.25;;;-144.14;100.00
7075;BME280;3578;51.568;6.932;2023-02-19T05:53:29;47603.25;;;-144.14;100.00
7075;BME280;3578;51.568;6.932;2023-02-19T05:55:56;47561.22;;;-144.14;100.00
7075;BME280;3578;51.568;6.932;2023-02-19T05:58:24;47541.22;;;-144.14;100.00
7075;BME280;3578;51.568;6.932;2023-02-19T06:00:52;47469.19;;;-144.14;100.00
7075;BME280;3578;51.568;6.932;2023-02-19T06:03:20;47425.19;;;-144.14;100.00
7075;BME280;3578;51.568;6.932;2023-02-19T06:05:47;47419.19;;;-144.14;100.00
7075;BME280;3578;51.568;6.932;2023-02-19T06:08:15;47387.16;;;-144.14;100.00
7075;BME280;3578;51.568;6.932;2023-02-19T06:10:43;47369.16;;;-144.14;100.00
7075;BME280;3578;51.568;6.932;2023-02-19T06:13:10;47383.16;;;-144.14;100.00
7075;BME280;3578;51.568;6.932;2023-02-19T06:15:37;47317.16;;;-144.14;100.00
7075;BME280;3578;51.568;6.932;2023-02-19T06:18:06;47107.09;;;-144.14;100.00
7075;BME280;3578;51.568;6.932;2023-02-19T06:20:33;47163.09;;;-144.14;100.00
7075;BME280;3578;51.568;6.932;2023-02-19T06:23:00;47169.09;;;-144.14;100.00
7075;BME280;3578;51.568;6.932;2023-02-19T06:25:27;47191.13;;;-144.14;100.00
7075;BME280;3578;51.568;6.932;2023-02-19T06:27:54;47187.13;;;-144.14;100.00
7075;BME280;3578;51.568;6.932;2023-02-19T06:30:21;47247.13;;;-144.14;100.00
7075;BME280;3578;51.568;6.932;2023-02-19T06:32:51;47319.16;;;-144.14;100.00
7075;BME280;3578;51.568;6.932;2023-02-19T06:35:20;47367.16;;;-144.14;100.00
7075;BME280;3578;51.568;6.932;2023-02-19T06:37:47;47363.16;;;-144.14;100.00
7075;BME280;3578;51.568;6.932;2023-02-19T06:40:15;47365.16;;;-144.14;100.00
7075;BME280;3578;51.568;6.932;2023-02-19T06:42:42;47355.16;;;-144.14;100.00
7075;BME280;3578;51.568;6.932;2023-02-19T06:45:09;47377.16;;;-144.14;100.00
7075;BME280;3578;51.568;6.932;2023-02-19T06:47:37;47335.16;;;-144.14;100.00
7075;BME280;3578;51.568;6.932;2023-02-19T06:50:05;47293.16;;;-144.14;100.00
7075;BME280;3578;51.568;6.932;2023-02-19T06:52:33;47311.16;;;-144.14;100.00
7075;BME280;3578;51.568;6.932;2023-02-19T06:55:00;47395.16;;;-144.14;100.00
7075;BME280;3578;51.568;6.932;2023-02-19T06:57:27;47369.16;;;-144.14;100.00
7075;BME280;3578;51.568;6.932;2023-02-19T06:59:54;47311.16;;;-144.14;100.00
7075;BME280;3578;51.568;6.932;2023-02-19T07:02:21;47277.13;;;-144.14;100.00
7075;BME280;3578;51.568;6.932;2023-02-19T07:04:48;47355.16;;;-144.14;100.00
7075;BME280;3578;51.568;6.932;2023-02-19T07:07:15;47473.19;;;-144.14;100.00
7075;BME280;3578;51.568;6.932;2023-02-19T07:09:43;47501.22;;;-144.14;100.00
7075;BME280;3578;51.568;6.932;2023-02-19T07:12:10;47519.22;;;-144.14;100.00
7075;BME280;3578;51.568;6.932;2023-02-19T07:14:37;47543.22;;;-144.14;100.00
7075;BME280;3578;51.568;6.932;2023-02-19T07:17:04;47481.19;;;-144.14;100.00
7075;BME280;3578;51.568;6.932;2023-02-19T07:19:31;47397.19;;;-144.14;100.00
7075;BME280;3578;51.568;6.932;2023-02-19T07:21:58;47319.16;;;-144.14;100.00
7075;BME280;3578;51.568;6.932;2023-02-19T07:24:26;47249.13;;;-144.14;100.00
7075;BME280;3578;51.568;6.932;2023-02-19T07:26:54;47259.13;;;-144.14;100.00
7075;BME280;3578;51.568;6.932;2023-02-19T07:29:21;47275.13;;;-144.14;100.00
7075;BME280;3578;51.568;6.932;2023-02-19T07:31:48;47211.13;;;-144.14;100.00
7075;BME280;3578;51.568;6.932;2023-02-19T07:34:16;47275.13;;;-144.14;100.00
7075;BME280;3578;51.568;6.932;2023-02-19T07:36:43;47277.13;;;-144.14;100.00
7075;BME280;3578;51.568;6.932;2023-02-19T07:39:12;47245.13;;;-144.14;100.00
7075;BME280;3578;51.568;6.932;2023-02-19T07:41:40;47239.13;;;-144.14;100.00
7075;BME280;3578;51.568;6.932;2023-02-19T07:44:08;47159.09;;;-144.14;100.00
7075;BME280;3578;51.568;6.932;2023-02-19T07:46:38;47191.13;;;-144.14;100.00
7075;BME280;3578;51.568;6.932;2023-02-19T07:49:05;47209.13;;;-144.14;100.00
7075;BME280;3578;51.568;6.932;2023-02-19T07:51:32;47213.13;;;-144.14;100.00
7075;BME280;3578;51.568;6.932;2023-02-19T07:53:59;47225.13;;;-144.14;100.00
7075;BME280;3578;51.568;6.932;2023-02-19T07:56:26;47203.13;;;-144.14;100.00
7075;BME280;3578;51.568;6.932;2023-02-19T07:58:54;47161.09;;;-144.14;100.00
7075;BME280;3578;51.568;6.932;2023-02-19T08:01:23;47215.13;;;-144.14;100.00
7075;BME280;3578;51.568;6.932;2023-02-19T08:04:12;47129.09;;;-144.14;100.00
7075;BME280;3578;51.568;6.932;2023-02-19T08:06:39;47167.09;;;-144.14;100.00
7075;BME280;3578;51.568;6.932;2023-02-19T08:09:07;47209.13;;;-144.14;100.00
7075;BME280;3578;51.568;6.932;2023-02-19T08:11:34;47295.16;;;-144.14;100.00
7075;BME280;3578;51.568;6.932;2023-02-19T08:14:23;47263.13;;;-144.14;100.00
7075;BME280;3578;51.568;6.932;2023-02-19T08:16:52;47235.13;;;-144.14;100.00
7075;BME280;3578;51.568;6.932;2023-02-19T08:19:19;47239.13;;;-144.14;100.00
7075;BME280;3578;51.568;6.932;2023-02-19T08:21:46;47179.13;;;-144.14;100.00
7075;BME280;3578;51.568;6.932;2023-02-19T08:24:15;47097.09;;;-144.14;100.00
7075;BME280;3578;51.568;6.932;2023-02-19T08:26:42;47283.13;;;-144.14;100.00
7075;BME280;3578;51.568;6.932;2023-02-19T08:29:09;47287.13;;;-144.14;100.00
7075;BME280;3578;51.568;6.932;2023-02-19T08:31:36;47369.16;;;-144.14;100.00
7075;BME280;3578;51.568;6.932;2023-02-19T08:34:05;47461.19;;;-144.14;100.00
7075;BME280;3578;51.568;6.932;2023-02-19T08:36:31;47563.22;;;-144.14;100.00
7075;BME280;3578;51.568;6.932;2023-02-19T08:38:58;47635.25;;;-144.14;100.00
7075;BME280;3578;51.568;6.932;2023-02-19T08:41:25;47687.28;;;-144.14;100.00
7075;BME280;3578;51.568;6.932;2023-02-19T08:43:52;47851.34;;;-144.14;100.00
7075;BME280;3578;51.568;6.932;2023-02-19T08:46:19;47875.34;;;-144.14;100.00
7075;BME280;3578;51.568;6.932;2023-02-19T08:48:47;48007.41;;;-144.14;100.00
7075;BME280;3578;51.568;6.932;2023-02-19T08:51:15;48027.44;;;-144.14;100.00
7075;BME280;3578;51.568;6.932;2023-02-19T08:53:42;47999.41;;;-144.14;100.00
7075;BME280;3578;51.568;6.932;2023-02-19T08:56:11;47977.41;;;-144.14;100.00
7075;BME280;3578;51.568;6.932;2023-02-19T08:58:39;48009.41;;;-144.14;100.00
7075;BME280;3578;51.568;6.932;2023-02-19T09:01:08;48023.44;;;-144.14;100.00
7075;BME280;3578;51.568;6.932;2023-02-19T09:03:36;48079.47;;;-144.14;100.00
7075;BME280;3578;51.568;6.932;2023-02-19T09:06:03;48167.50;;;-144.14;100.00
7075;BME280;3578;51.568;6.932;2023-02-19T09:08:32;48203.53;;;-144.14;100.00
7075;BME280;3578;51.568;6.932;2023-02-19T09:11:00;48329.59;;;-144.14;100.00
7075;BME280;3578;51.568;6.932;2023-02-19T09:13:28;48401.63;;;-144.14;100.00
7075;BME280;3578;51.568;6.932;2023-02-19T09:15:56;48351.59;;;-144.14;100.00
7075;BME280;3578;51.568;6.932;2023-02-19T09:20:50;48473.69;;;-144.14;100.00
7075;BME280;3578;51.568;6.932;2023-02-19T09:23:17;48479.69;;;-144.14;100.00
7075;BME280;3578;51.568;6.932;2023-02-19T09:25:45;48529.72;;;-144.14;100.00
7075;BME280;3578;51.568;6.932;2023-02-19T09:28:12;48597.75;;;-144.14;100.00
7075;BME280;3578;51.568;6.932;2023-02-19T09:30:40;48635.78;;;-144.14;100.00
7075;BME280;3578;51.568;6.932;2023-02-19T09:33:07;48639.78;;;-144.14;100.00
7075;BME280;3578;51.568;6.932;2023-02-19T09:35:37;48659.81;;;-144.14;100.00
7075;BME280;3578;51.568;6.932;2023-02-19T09:38:04;48593.75;;;-144.14;100.00
7075;BME280;3578;51.568;6.932;2023-02-19T09:40:31;48531.72;;;-144.14;100.00
7075;BME280;3578;51.568;6.932;2023-02-19T09:43:05;48531.72;;;-144.14;100.00
7075;BME280;3578;51.568;6.932;2023-02-19T09:45:34;48451.66;;;-144.14;100.00
7075;BME280;3578;51.568;6.932;2023-02-19T09:48:05;48407.63;;;-144.14;100.00
7075;BME280;3578;51.568;6.932;2023-02-19T09:50:41;48381.63;;;-144.14;100.00
7075;BME280;3578;51.568;6.932;2023-02-19T09:53:15;48375.63;;;-144.14;100.00
7075;BME280;3578;51.568;6.932;2023-02-19T09:55:44;48363.63;;;-144.14;100.00
7075;BME280;3578;51.568;6.932;2023-02-19T09:58:23;48435.66;;;-144.14;100.00
7075;BME280;3578;51.568;6.932;2023-02-19T10:00:53;48429.66;;;-144.14;100.00
7075;BME280;3578;51.568;6.932;2023-02-19T10:03:24;48507.72;;;-144.14;100.00
7075;BME280;3578;51.568;6.932;2023-02-19T10:05:56;48513.72;;;-144.14;100.00
7075;BME280;3578;51.568;6.932;2023-02-19T10:08:24;48637.78;;;-144.14;100.00
7075;BME280;3578;51.568;6.932;2023-02-19T10:10:52;48755.88;;;-144.14;100.00
7075;BME280;3578;51.568;6.932;2023-02-19T10:13:26;48821.91;;;-144.14;100.00
7075;BME280;3578;51.568;6.932;2023-02-19T10:15:57;48924.00;;;-144.14;100.00
7075;BME280;3578;51.568;6.932;2023-02-19T10:18:30;48968.03;;;-144.14;100.00
7075;BME280;3578;51.568;6.932;2023-02-19T10:21:00;48928.00;;;-144.14;100.00
7075;BME280;3578;51.568;6.932;2023-02-19T10:23:30;48891.97;;;-144.14;100.00
7075;BME280;3578;51.568;6.932;2023-02-19T10:25:58;48889.97;;;-144.14;100.00
7075;BME280;3578;51.568;6.932;2023-02-19T10:28:29;48859.94;;;-144.14;100.00
7075;BME280;3578;51.568;6.932;2023-02-19T10:30:59;48851.94;;;-144.14;100.00
7075;BME280;3578;51.568;6.932;2023-02-19T10:33:27;48871.97;;;-144.14;100.00
7075;BME280;3578;51.568;6.932;2023-02-19T10:35:56;48863.94;;;-144.14;100.00
7075;BME280;3578;51.568;6.932;2023-02-19T10:38:27;48968.03;;;-144.14;100.00
7075;BME280;3578;51.568;6.932;2023-02-19T10:41:03;49028.06;;;-144.14;100.00
7075;BME280;3578;51.568;6.932;2023-02-19T10:43:35;49080.13;;;-144.14;100.00
7075;BME280;3578;51.568;6.932;2023-02-19T10:46:07;49156.19;;;-144.14;100.00
7075;BME280;3578;51.568;6.932;2023-02-19T10:48:45;49188.22;;;-144.14;100.00
7075;BME280;3578;51.568;6.932;2023-02-19T10:51:15;49236.25;;;-144.14;100.00
7075;BME280;3578;51.568;6.932;2023-02-19T10:53:49;49264.28;;;-144.14;100.00
7075;BME280;3578;51.568;6.932;2023-02-19T10:56:23;49324.31;;;-144.14;100.00
7075;BME280;3578;51.568;6.932;2023-02-19T10:58:52;49274.28;;;-144.14;100.00
7075;BME280;3578;51.568;6.932;2023-02-19T11:01:21;49270.28;;;-144.14;100.00
7075;BME280;3578;51.568;6.932;2023-02-19T11:03:51;49324.31;;;-144.14;100.00
7075;BME280;3578;51.568;6.932;2023-02-19T11:06:20;49430.41;;;-144.14;99.77
7075;BME280;3578;51.568;6.932;2023-02-19T11:08:55;49464.47;;;-144.14;99.53
7075;BME280;3578;51.568;6.932;2023-02-19T11:11:30;49446.44;;;-144.14;100.00
7075;BME280;3578;51.568;6.932;2023-02-19T11:14:03;49524.50;;;-144.14;98.94
7075;BME280;3578;51.568;6.932;2023-02-19T11:16:43;49628.59;;;-144.14;98.07
7075;BME280;3578;51.568;6.932;2023-02-19T11:19:35;49744.72;;;-144.14;97.38
7075;BME280;3578;51.568;6.932;2023-02-19T11:22:19;50007.00;;;-144.14;95.46
7075;BME280;3578;51.568;6.932;2023-02-19T11:24:48;50101.09;;;-144.14;94.67
7075;BME280;3578;51.568;6.932;2023-02-19T11:27:20;50229.25;;;-144.14;94.31
7075;BME280;3578;51.568;6.932;2023-02-19T11:29:49;50215.22;;;-144.14;94.94
7075;BME280;3578;51.568;6.932;2023-02-19T11:32:24;50213.22;;;-144.14;95.58
7075;BME280;3578;51.568;6.932;2023-02-19T11:35:13;50271.28;;;-144.14;95.34
7075;BME280;3578;51.568;6.932;2023-02-19T11:37:57;50281.31;;;-144.14;95.28
7075;BME280;3578;51.568;6.932;2023-02-19T11:40:38;50333.38;;;-144.14;94.03
7075;BME280;3578;51.568;6.932;2023-02-19T11:43:20;50461.53;;;-144.14;92.77
7075;BME280;3578;51.568;6.932;2023-02-19T11:46:00;50469.53;;;-144.14;93.71
7075;BME280;3578;51.568;6.932;2023-02-19T11:48:40;50427.47;;;-144.14;94.66
7075;BME280;3578;51.568;6.932;2023-02-19T11:51:36;50437.50;;;-144.14;94.68
7075;BME280;3578;51.568;6.932;2023-02-19T11:54:24;50443.50;;;-144.14;94.83
7075;BME280;3578;51.568;6.932;2023-02-19T11:57:05;50497.56;;;-144.14;94.49
7075;BME280;3578;51.568;6.932;2023-02-19T11:59:45;50465.53;;;-144.14;94.86
7075;BME280;3578;51.568;6.932;2023-02-19T12:02:42;50467.53;;;-144.14;95.04
7075;BME280;3578;51.568;6.932;2023-02-19T12:05:26;50483.56;;;-144.14;95.31
7075;BME280;3578;51.568;6.932;2023-02-19T12:08:18;50473.53;;;-144.14;94.99
7075;BME280;3578;51.568;6.932;2023-02-19T12:11:07;50489.56;;;-144.14;94.73
7075;BME280;3578;51.568;6.932;2023-02-19T12:14:00;50509.59;;;-144.14;94.96
7075;BME280;3578;51.568;6.932;2023-02-19T12:16:36;50657.78;;;-144.14;93.17
7075;BME280;3578;51.568;6.932;2023-02-19T12:19:26;50753.88;;;-144.14;91.90
7075;BME280;3578;51.568;6.932;2023-02-19T12:22:26;50697.81;;;-144.14;93.02
7075;BME280;3578;51.568;6.932;2023-02-19T12:25:24;50787.94;;;-144.14;90.78
7075;BME280;3578;51.568;6.932;2023-02-19T12:31:58;50944.16;;;-144.14;90.16
7075;BME280;3578;51.568;6.932;2023-02-19T12:35:04;50966.19;;;-144.14;90.70
7075;BME280;3578;51.568;6.932;2023-02-19T12:37:45;50928.13;;;-144.14;91.10
7075;BME280;3578;51.568;6.932;2023-02-19T12:40:32;50922.13;;;-144.14;91.99
7075;BME280;3578;51.568;6.932;2023-02-19T12:43:12;50813.97;;;-144.14;93.84
7075;BME280;3578;51.568;6.932;2023-02-19T12:45:45;50854.03;;;-144.14;94.33
7075;BME280;3578;51.568;6.932;2023-02-19T12:48:24;50811.97;;;-144.14;94.42
7075;BME280;3578;51.568;6.932;2023-02-19T12:50:57;50785.94;;;-144.14;95.04
7075;BME280;3578;51.568;6.932;2023-02-19T12:53:38;50787.94;;;-144.14;94.35
7075;BME280;3578;51.568;6.932;2023-02-19T12:56:12;50779.94;;;-144.14;94.52
7075;BME280;3578;51.568;6.932;2023-02-19T12:58:44;50813.97;;;-144.14;94.89
7075;BME280;3578;51.568;6.932;2023-02-19T13:01:18;50801.97;;;-144.14;94.94
7075;BME280;3578;51.568;6.932;2023-02-19T13:03:52;50817.97;;;-144.14;94.49
7075;BME280;3578;51.568;6.932;2023-02-19T13:06:36;50749.88;;;-144.14;94.98
7075;BME280;3578;51.568;6.932;2023-02-19T13:09:13;50803.97;;;-144.14;94.21
7075;BME280;3578;51.568;6.932;2023-02-19T13:11:43;50876.06;;;-144.14;93.56
7075;BME280;3578;51.568;6.932;2023-02-19T13:14:22;50840.00;;;-144.14;93.92
7075;BME280;3578;51.568;6.932;2023-02-19T13:16:56;50862.03;;;-144.14;92.45
7075;BME280;3578;51.568;6.932;2023-02-19T13:19:24;50952.16;;;-144.14;92.17
7075;BME280;3578;51.568;6.932;2023-02-19T13:22:04;50886.06;;;-144.14;93.89
7075;BME280;3578;51.568;6.932;2023-02-19T13:24:54;50807.97;;;-144.14;95.07
7075;BME280;3578;51.568;6.932;2023-02-19T13:27:42;50817.97;;;-144.14;95.23